Time;durP1;ratioP1;P1;durP2;ratioP2;P2;SDS_P1;SDS_P2;PMS_P1;PMS_P2;Temp;Humidity;BMP_temperature;BMP_pressure;BME280_temperature;BME280_humidity;BME280_pressure;Samples;Min_cycle;Max_cycle;Signal;HPM_P1;HPM_P2
2022/07/03 00:01:52;;;;;;;;;;;;;;;17.22;90.17;101779.06;4994269;28;19917;-58
2022/07/03 00:04:20;;;;;;;;;;;;;;;17.16;90.49;101775.78;4995015;28;19922;-58
2022/07/03 00:06:45;;;;;;;;;;;;;;;17.15;89.88;101782.09;4995030;28;20291;-59
2022/07/03 00:09:10;;;;;;;;;;;;;;;17.15;89.36;101778.56;4995272;28;19914;-59
2022/07/03 00:11:36;;;;;;;;;;;;;;;17.15;88.78;101779.41;4995085;28;20305;-59
2022/07/03 00:14:01;;;;;;;;;;;;;;;17.16;88.87;101781.16;4995128;28;19921;-59
2022/07/03 00:16:27;;;;;;;;;;;;;;;17.20;88.53;101780.00;5009905;28;19921;-59
2022/07/03 00:18:52;;;;;;;;;;;;;;;17.23;87.47;101783.47;4995151;28;20008;-59
2022/07/03 00:21:23;;;;;;;;;;;;;;;17.25;87.26;101779.75;4994915;28;20584;-59
2022/07/03 00:24:03;;;;;;;;;;;;;;;17.26;87.28;101781.44;4995059;28;19909;-59
2022/07/03 00:26:30;;;;;;;;;;;;;;;17.25;86.73;101779.75;4994615;28;19910;-60
2022/07/03 00:28:56;;;;;;;;;;;;;;;17.23;87.14;101780.78;4993591;28;20297;-59
2022/07/03 00:31:22;;;;;;;;;;;;;;;17.22;87.13;101779.06;4994761;28;19917;-60
2022/07/03 00:33:47;;;;;;;;;;;;;;;17.24;87.13;101774.47;4994786;28;19940;-59
2022/07/03 00:36:13;;;;;;;;;;;;;;;17.24;86.44;101775.34;4994469;28;20293;-59
2022/07/03 00:38:38;;;;;;;;;;;;;;;17.21;87.05;101775.50;4993714;28;19910;-59
2022/07/03 00:41:04;;;;;;;;;;;;;;;17.28;86.61;101784.06;4994704;28;20289;-59
2022/07/03 00:43:30;;;;;;;;;;;;;;;17.29;86.60;101781.28;4994507;28;20391;-59
2022/07/03 00:46:03;;;;;;;;;;;;;;;17.30;86.23;101777.66;4994549;28;19980;-59
2022/07/03 00:48:29;;;;;;;;;;;;;;;17.32;85.71;101773.06;4994621;28;19917;-59
2022/07/03 00:50:57;;;;;;;;;;;;;;;17.33;85.16;101771.28;4994692;28;19956;-59
2022/07/03 00:53:31;;;;;;;;;;;;;;;17.33;86.15;101784.66;4994221;28;19918;-59
2022/07/03 00:55:58;;;;;;;;;;;;;;;17.32;85.85;101769.53;4994291;28;19909;-60
2022/07/03 00:58:23;;;;;;;;;;;;;;;17.35;85.39;101772.03;4994172;28;19960;-60
2022/07/03 01:00:51;;;;;;;;;;;;;;;17.34;85.60;101764.94;4994597;28;19926;-59
2022/07/03 01:03:17;;;;;;;;;;;;;;;17.37;85.82;101772.81;4993986;28;19914;-60
2022/07/03 01:05:44;;;;;;;;;;;;;;;17.37;86.19;101772.81;4992999;28;20297;-60
2022/07/03 01:08:21;;;;;;;;;;;;;;;17.34;86.04;101772.97;5009038;28;19914;-59
2022/07/03 01:10:49;;;;;;;;;;;;;;;17.33;86.69;101761.41;4994035;28;20361;-59
2022/07/03 01:13:20;;;;;;;;;;;;;;;17.29;86.46;101767.91;4993884;28;19913;-59
2022/07/03 01:16:03;;;;;;;;;;;;;;;17.24;86.76;101766.44;4993923;28;19948;-59
2022/07/03 01:18:44;;;;;;;;;;;;;;;17.20;87.87;101763.94;4993964;28;19918;-58
2022/07/03 01:21:36;;;;;;;;;;;;;;;17.18;87.93;101775.69;4993836;28;20284;-59
2022/07/03 01:24:26;;;;;;;;;;;;;;;17.19;89.05;101769.41;4985425;28;19917;-59
2022/07/03 01:26:55;;;;;;;;;;;;;;;17.21;88.94;101770.16;4993561;28;19921;-59
2022/07/03 01:29:31;;;;;;;;;;;;;;;17.19;89.14;101770.25;4993601;28;19931;-59
2022/07/03 01:31:58;;;;;;;;;;;;;;;17.18;89.29;101765.84;5009003;28;19953;-59
2022/07/03 01:34:25;;;;;;;;;;;;;;;17.17;89.65;101766.81;4993583;28;20008;-59
2022/07/03 01:36:54;;;;;;;;;;;;;;;17.15;89.69;101754.47;4993363;28;19909;-60
2022/07/03 01:39:21;;;;;;;;;;;;;;;17.17;90.40;101758.78;4993466;28;19976;-59
2022/07/03 01:41:48;;;;;;;;;;;;;;;17.16;90.86;101757.06;4993585;28;20017;-59
2022/07/03 01:44:14;;;;;;;;;;;;;;;17.16;91.08;101757.06;4993551;28;19945;-59
2022/07/03 01:46:41;;;;;;;;;;;;;;;17.16;91.32;101758.84;4991941;28;20341;-58
2022/07/03 01:49:09;;;;;;;;;;;;;;;17.12;91.11;101754.63;4993364;28;19945;-58
2022/07/03 01:51:35;;;;;;;;;;;;;;;17.09;92.08;101762.84;4993162;28;19910;-58
2022/07/03 01:54:02;;;;;;;;;;;;;;;17.10;92.49;101757.41;4993265;28;19917;-59
2022/07/03 01:56:28;;;;;;;;;;;;;;;17.11;92.53;101756.47;4993061;28;20012;-59
2022/07/03 01:58:53;;;;;;;;;;;;;;;17.15;92.54;101755.31;4993281;28;19929;-59
2022/07/03 02:01:21;;;;;;;;;;;;;;;17.13;92.73;101765.25;4993067;28;19914;-59
2022/07/03 02:04:01;;;;;;;;;;;;;;;17.14;93.31;101756.28;4993084;28;20032;-59
2022/07/03 02:06:27;;;;;;;;;;;;;;;17.14;93.04;101742.88;4993191;28;19916;-59
2022/07/03 02:09:00;;;;;;;;;;;;;;;17.12;93.44;101747.50;4992976;28;19914;-58
2022/07/03 02:11:27;;;;;;;;;;;;;;;17.11;93.54;101740.41;4993296;28;20023;-58
2022/07/03 02:14:12;;;;;;;;;;;;;;;17.04;93.90;101745.22;4993065;28;20384;-59
2022/07/03 02:16:44;;;;;;;;;;;;;;;16.99;94.76;101741.94;4992682;28;19910;-59
2022/07/03 02:19:10;;;;;;;;;;;;;;;16.93;95.04;101736.97;4993050;28;19910;-59
2022/07/03 02:21:39;;;;;;;;;;;;;;;16.92;95.51;101745.06;4991562;28;19910;-59
2022/07/03 02:24:08;;;;;;;;;;;;;;;16.86;96.05;101740.91;4992937;28;19920;-59
2022/07/03 02:26:34;;;;;;;;;;;;;;;16.84;96.94;101734.78;4992736;28;19914;-59
2022/07/03 02:29:07;;;;;;;;;;;;;;;16.84;97.29;101734.78;4991584;28;19920;-59
2022/07/03 02:31:37;;;;;;;;;;;;;;;16.83;97.61;101728.56;4992841;28;20056;-58
2022/07/03 02:34:04;;;;;;;;;;;;;;;16.84;97.64;101721.41;4992726;28;19928;-58
2022/07/03 02:36:31;;;;;;;;;;;;;;;16.79;97.41;101727.03;4992698;28;19910;-58
2022/07/03 02:38:57;;;;;;;;;;;;;;;16.75;97.98;101733.47;4992784;28;20012;-58
2022/07/03 02:41:36;;;;;;;;;;;;;;;16.76;98.49;101723.66;4991435;28;19913;-59
2022/07/03 02:44:04;;;;;;;;;;;;;;;16.75;98.37;101733.47;4992766;28;19996;-59
2022/07/03 02:49:13;;;;;;;;;;;;;;;16.79;99.16;101731.50;4992642;28;19940;-60
2022/07/03 02:51:40;;;;;;;;;;;;;;;16.78;99.32;101725.31;4992703;28;19910;-58
2022/07/03 02:54:15;;;;;;;;;;;;;;;16.77;99.83;101736.94;4992652;28;19921;-58
2022/07/03 02:56:52;;;;;;;;;;;;;;;16.75;99.89;101737.97;4992598;28;19917;-58
2022/07/03 02:59:26;;;;;;;;;;;;;;;16.70;100.00;101733.75;4992529;28;19914;-59
2022/07/03 03:01:57;;;;;;;;;;;;;;;16.72;100.00;101744.38;4993316;28;19956;-60
2022/07/03 03:04:30;;;;;;;;;;;;;;;16.74;100.00;101739.81;4996161;28;19918;-59
2022/07/03 03:07:01;;;;;;;;;;;;;;;16.74;100.00;101738.94;4996565;28;20033;-60
2022/07/03 03:09:30;;;;;;;;;;;;;;;16.74;100.00;101736.25;5011299;28;19909;-60
2022/07/03 03:11:58;;;;;;;;;;;;;;;16.71;100.00;101737.28;4996381;28;19910;-59
2022/07/03 03:14:27;;;;;;;;;;;;;;;16.68;100.00;101737.47;4994789;28;20289;-60
2022/07/03 03:16:53;;;;;;;;;;;;;;;16.64;100.00;101741.28;5011271;28;19956;-59
2022/07/03 03:19:22;;;;;;;;;;;;;;;16.59;100.00;101738.00;4995895;28;19917;-60
2022/07/03 03:22:16;;;;;;;;;;;;;;;16.57;100.00;101742.56;4994881;28;19960;-59
2022/07/03 03:24:41;;;;;;;;;;;;;;;16.60;100.00;101734.34;5011076;28;19909;-58
2022/07/03 03:27:07;;;;;;;;;;;;;;;16.61;100.00;101736.09;4996021;28;19917;-58
2022/07/03 03:29:32;;;;;;;;;;;;;;;16.58;100.00;101733.59;4994521;28;19914;-59
2022/07/03 03:31:57;;;;;;;;;;;;;;;16.52;100.00;101741.00;4996127;28;20289;-59
2022/07/03 03:34:23;;;;;;;;;;;;;;;16.47;100.00;101729.72;4995617;28;19971;-59
2022/07/03 03:36:49;;;;;;;;;;;;;;;16.43;100.00;101730.81;4995945;28;19916;-58
2022/07/03 03:39:14;;;;;;;;;;;;;;;16.35;100.00;101744.59;4995672;28;19913;-59
2022/07/03 03:41:39;;;;;;;;;;;;;;;16.29;100.00;101741.41;4995755;28;19914;-59
2022/07/03 03:44:04;;;;;;;;;;;;;;;16.29;100.00;101742.28;4995759;28;19910;-58
2022/07/03 03:46:30;;;;;;;;;;;;;;;16.31;100.00;101747.53;4995795;28;19921;-59
2022/07/03 03:48:56;;;;;;;;;;;;;;;16.36;100.00;101742.81;4995364;28;19909;-60
2022/07/03 03:51:21;;;;;;;;;;;;;;;16.38;100.00;101743.56;4995425;28;20374;-58
2022/07/03 03:53:46;;;;;;;;;;;;;;;16.37;100.00;101748.06;4995596;28;19925;-59
2022/07/03 03:56:14;;;;;;;;;;;;;;;16.37;100.00;101747.22;4995525;28;19917;-59
2022/07/03 03:58:40;;;;;;;;;;;;;;;16.36;100.00;101740.97;4995267;28;19913;-58
2022/07/03 04:01:06;;;;;;;;;;;;;;;16.34;100.00;101740.22;4995500;28;19924;-58
2022/07/03 04:03:32;;;;;;;;;;;;;;;16.31;100.00;101743.03;4995265;28;19921;-58
2022/07/03 04:05:57;;;;;;;;;;;;;;;16.32;100.00;101746.59;4995430;28;19921;-58
2022/07/03 04:08:23;;;;;;;;;;;;;;;16.33;100.00;101746.50;4993778;28;20730;-59
2022/07/03 04:10:49;;;;;;;;;;;;;;;16.35;100.00;101743.75;4995314;28;19902;-58
2022/07/03 04:13:14;;;;;;;;;;;;;;;16.33;100.00;101742.94;4994240;28;19921;-58
2022/07/03 04:15:40;;;;;;;;;;;;;;;16.32;100.00;101742.09;4994780;28;19913;-59
2022/07/03 04:18:05;;;;;;;;;;;;;;;16.31;100.00;101743.03;4994938;28;19939;-59
2022/07/03 04:20:30;;;;;;;;;;;;;;;16.32;100.00;101751.94;4995235;28;19920;-59
2022/07/03 04:22:56;;;;;;;;;;;;;;;16.35;100.00;101749.94;4995158;28;19916;-59
2022/07/03 04:25:21;;;;;;;;;;;;;;;16.36;100.00;101745.47;4994952;28;20008;-60
2022/07/03 04:27:47;;;;;;;;;;;;;;;16.34;100.00;101744.69;4995139;28;20029;-57
2022/07/03 04:30:12;;;;;;;;;;;;;;;16.32;100.00;101751.94;4994321;28;19934;-58
2022/07/03 04:32:38;;;;;;;;;;;;;;;16.35;100.00;101749.09;4992321;28;20000;-60
2022/07/03 04:35:03;;;;;;;;;;;;;;;16.36;100.00;101751.66;4991520;28;19921;-59
2022/07/03 04:37:29;;;;;;;;;;;;;;;16.44;100.00;101755.75;4994098;28;20346;-58
2022/07/03 04:39:54;;;;;;;;;;;;;;;16.53;100.00;101755.22;4993455;28;20593;-58
2022/07/03 04:42:19;;;;;;;;;;;;;;;16.62;100.00;101757.38;4994593;28;19914;-58
2022/07/03 04:44:44;;;;;;;;;;;;;;;16.69;100.00;101756.09;4994511;28;19914;-58
2022/07/03 04:47:10;;;;;;;;;;;;;;;16.75;100.00;101751.34;4993089;28;19961;-58
2022/07/03 04:49:35;;;;;;;;;;;;;;;16.84;100.00;101764.19;4994412;28;19948;-59
2022/07/03 04:52:01;;;;;;;;;;;;;;;16.86;100.00;101755.13;4993388;28;19914;-60
2022/07/03 04:54:26;;;;;;;;;;;;;;;16.91;100.00;101765.63;4994207;28;19936;-59
2022/07/03 04:56:51;;;;;;;;;;;;;;;16.96;100.00;101760.88;5009459;28;19913;-60
2022/07/03 04:59:16;;;;;;;;;;;;;;;17.00;100.00;101762.41;4993874;28;19918;-59
2022/07/03 05:01:41;;;;;;;;;;;;;;;16.99;100.00;101762.50;4994143;28;19916;-59
2022/07/03 05:04:07;;;;;;;;;;;;;;;16.98;100.00;101769.69;5007892;28;19929;-59
2022/07/03 05:06:32;;;;;;;;;;;;;;;16.96;100.00;101770.72;4992928;28;19917;-60
2022/07/03 05:08:57;;;;;;;;;;;;;;;16.87;100.00;101770.25;4992895;28;19936;-60
2022/07/03 05:11:22;;;;;;;;;;;;;;;16.80;100.00;101768.88;4993834;28;19953;-60
2022/07/03 05:13:47;;;;;;;;;;;;;;;16.79;100.00;101772.50;4992739;28;19918;-60
2022/07/03 05:16:13;;;;;;;;;;;;;;;16.81;100.00;101770.59;5008915;28;19918;-59
2022/07/03 05:18:38;;;;;;;;;;;;;;;16.83;100.00;101779.41;4993703;28;19909;-59
2022/07/03 05:21:03;;;;;;;;;;;;;;;16.82;100.00;101771.47;5009074;28;19976;-59
2022/07/03 05:23:28;;;;;;;;;;;;;;;16.79;100.00;101769.84;4993762;28;19917;-60
2022/07/03 05:25:55;;;;;;;;;;;;;;;16.84;100.00;101770.44;4992017;28;19916;-60
2022/07/03 05:28:20;;;;;;;;;;;;;;;16.82;100.00;101769.66;4993640;28;19914;-60
2022/07/03 05:30:45;;;;;;;;;;;;;;;16.87;100.00;101775.59;4993578;28;19924;-59
2022/07/03 05:33:11;;;;;;;;;;;;;;;16.87;100.00;101774.75;4993569;28;19920;-59
2022/07/03 05:35:36;;;;;;;;;;;;;;;16.90;100.00;101776.38;4993702;28;19917;-60
2022/07/03 05:38:01;;;;;;;;;;;;;;;16.87;100.00;101777.41;4993371;28;19914;-60
2022/07/03 05:40:26;;;;;;;;;;;;;;;16.89;100.00;101778.19;4993329;28;19914;-60
2022/07/03 05:42:53;;;;;;;;;;;;;;;16.87;100.00;101777.41;4993542;28;19910;-58
2022/07/03 05:45:18;;;;;;;;;;;;;;;16.92;100.00;101778.06;4993458;28;19914;-58
2022/07/03 05:47:43;;;;;;;;;;;;;;;16.92;100.00;101774.50;5008016;28;19917;-59
2022/07/03 05:50:09;;;;;;;;;;;;;;;16.99;100.00;101775.88;4993277;28;19913;-59
2022/07/03 05:52:34;;;;;;;;;;;;;;;17.02;100.00;101779.25;4993518;28;19932;-60
2022/07/03 05:54:59;;;;;;;;;;;;;;;17.08;100.00;101779.84;4993318;28;19917;-60
2022/07/03 05:57:25;;;;;;;;;;;;;;;17.11;100.00;101777.88;4993040;28;19920;-60
2022/07/03 05:59:50;;;;;;;;;;;;;;;17.15;100.00;101779.41;4993455;28;19914;-59
2022/07/03 06:02:15;;;;;;;;;;;;;;;17.19;100.00;101778.28;4993122;28;19924;-58
2022/07/03 06:04:40;;;;;;;;;;;;;;;17.20;100.00;101785.34;4993000;28;19972;-59
2022/07/03 06:07:06;;;;;;;;;;;;;;;17.28;100.00;101778.72;4993163;28;19910;-59
2022/07/03 06:09:31;;;;;;;;;;;;;;;17.35;100.00;101772.03;4992906;28;19910;-60
2022/07/03 06:11:56;;;;;;;;;;;;;;;17.35;100.00;101767.56;4993046;28;19913;-58
2022/07/03 06:14:21;;;;;;;;;;;;;;;17.39;100.00;101778.06;4992913;28;19925;-58
2022/07/03 06:16:46;;;;;;;;;;;;;;;17.42;100.00;101784.09;5008149;28;19914;-59
2022/07/03 06:19:12;;;;;;;;;;;;;;;17.47;100.00;101774.00;4992844;28;19932;-58
2022/07/03 06:21:37;;;;;;;;;;;;;;;17.58;100.00;101776.00;4992973;28;20435;-61
2022/07/03 06:24:02;;;;;;;;;;;;;;;17.76;100.00;101779.44;4992901;28;20281;-60
2022/07/03 06:26:29;;;;;;;;;;;;;;;18.04;100.00;101780.44;4992917;28;19959;-59
2022/07/03 06:28:54;;;;;;;;;;;;;;;18.47;100.00;101769.72;4991598;28;20452;-60
2022/07/03 06:31:19;;;;;;;;;;;;;;;18.94;100.00;101775.69;4992715;28;20048;-59
2022/07/03 06:33:44;;;;;;;;;;;;;;;19.27;99.92;101777.13;4991490;28;19917;-60
2022/07/03 06:36:10;;;;;;;;;;;;;;;19.41;98.29;101778.88;4992846;28;20008;-59
2022/07/03 06:38:35;;;;;;;;;;;;;;;19.58;97.39;101774.19;4996117;28;19918;-59
2022/07/03 06:41:00;;;;;;;;;;;;;;;19.52;95.95;101772.75;4996883;28;19910;-59
2022/07/03 06:43:25;;;;;;;;;;;;;;;19.32;93.56;101777.66;4996673;28;20273;-60
2022/07/03 06:45:51;;;;;;;;;;;;;;;18.93;94.42;101779.34;4995648;28;20289;-60
2022/07/03 06:48:16;;;;;;;;;;;;;;;18.91;95.12;101786.63;4996461;28;19921;-60
2022/07/03 06:50:41;;;;;;;;;;;;;;;18.89;96.33;101785.84;4996434;28;20029;-58
2022/07/03 06:53:06;;;;;;;;;;;;;;;18.97;97.51;101785.38;4996705;28;19976;-59
2022/07/03 06:55:32;;;;;;;;;;;;;;;19.03;96.11;101779.59;4996463;28;19953;-59
2022/07/03 06:57:57;;;;;;;;;;;;;;;19.12;96.30;101773.63;4996457;28;19918;-58
2022/07/03 07:00:22;;;;;;;;;;;;;;;19.22;96.63;101773.00;4996743;28;19917;-58
2022/07/03 07:02:47;;;;;;;;;;;;;;;19.27;94.27;101776.25;4995076;28;20366;-58
2022/07/03 07:05:12;;;;;;;;;;;;;;;19.43;93.84;101778.78;5011397;28;20270;-59
2022/07/03 07:07:38;;;;;;;;;;;;;;;19.28;95.77;101781.53;4996291;28;19961;-58
2022/07/03 07:10:03;;;;;;;;;;;;;;;19.76;93.31;101782.81;4996211;28;19961;-58
2022/07/03 07:12:28;;;;;;;;;;;;;;;20.01;92.05;101786.50;4996041;28;20113;-59
2022/07/03 07:14:54;;;;;;;;;;;;;;;20.05;89.90;101796.06;4996232;28;19917;-59
2022/07/03 07:17:19;;;;;;;;;;;;;;;19.74;91.03;101790.97;4995927;28;19920;-59
2022/07/03 07:19:44;;;;;;;;;;;;;;;19.59;92.75;101792.88;4995938;28;19914;-59
2022/07/03 07:22:10;;;;;;;;;;;;;;;19.34;93.47;101795.50;4995139;28;20008;-59
2022/07/03 07:24:35;;;;;;;;;;;;;;;19.29;94.29;101802.03;4994960;28;19914;-60
2022/07/03 07:27:00;;;;;;;;;;;;;;;19.27;95.21;101793.22;5011109;28;20056;-59
2022/07/03 07:29:26;;;;;;;;;;;;;;;19.14;96.23;101801.25;4995522;28;19909;-59
2022/07/03 07:31:51;;;;;;;;;;;;;;;19.01;97.30;101800.31;4995771;28;19913;-60
2022/07/03 07:34:16;;;;;;;;;;;;;;;18.99;97.87;101813.84;4995840;28;19914;-59
2022/07/03 07:36:41;;;;;;;;;;;;;;;19.16;96.42;101815.41;4995696;28;19913;-60
2022/07/03 07:39:07;;;;;;;;;;;;;;;19.56;95.40;101811.03;4995714;28;19917;-59
2022/07/03 07:41:32;;;;;;;;;;;;;;;19.86;92.61;101820.69;4995540;28;19914;-59
2022/07/03 07:43:57;;;;;;;;;;;;;;;20.08;92.04;101823.59;4995742;28;20021;-60
2022/07/03 07:46:23;;;;;;;;;;;;;;;20.24;89.35;101818.03;4995603;28;20297;-59
2022/07/03 07:48:48;;;;;;;;;;;;;;;20.32;88.79;101817.50;4995087;28;19960;-60
2022/07/03 07:51:13;;;;;;;;;;;;;;;20.42;89.37;101823.06;4994237;28;19980;-59
2022/07/03 07:53:39;;;;;;;;;;;;;;;20.54;85.60;101822.19;4995581;28;20360;-59
2022/07/03 07:56:04;;;;;;;;;;;;;;;20.25;86.57;101825.09;4994255;28;19914;-59
2022/07/03 07:58:29;;;;;;;;;;;;;;;20.16;88.01;101827.59;4995165;28;19914;-58
2022/07/03 08:06:22;;;;;;;;;;;;;;;20.24;87.88;101833.28;4995311;28;19956;-59
2022/07/03 08:08:47;;;;;;;;;;;;;;;20.44;87.87;101829.19;4994986;28;19952;-59
2022/07/03 08:11:13;;;;;;;;;;;;;;;20.58;88.33;101829.06;4995113;28;19918;-59
2022/07/03 08:13:38;;;;;;;;;;;;;;;20.89;86.06;101828.72;4995031;28;19941;-59
2022/07/03 08:16:03;;;;;;;;;;;;;;;20.93;85.82;101824.81;4995193;28;19909;-58
2022/07/03 08:18:28;;;;;;;;;;;;;;;21.05;85.68;101828.44;4994855;28;19935;-58
2022/07/03 08:20:54;;;;;;;;;;;;;;;21.31;83.61;101823.81;4994982;28;20000;-58
2022/07/03 08:23:19;;;;;;;;;;;;;;;21.44;84.35;101826.44;4977415;28;19953;-59
2022/07/03 08:25:44;;;;;;;;;;;;;;;21.75;81.70;101827.72;4994770;28;19956;-59
2022/07/03 08:28:09;;;;;;;;;;;;;;;21.75;81.66;101829.53;4994868;28;20037;-59
2022/07/03 08:30:35;;;;;;;;;;;;;;;21.67;83.01;101829.28;4994583;28;20432;-60
2022/07/03 08:33:00;;;;;;;;;;;;;;;21.42;82.85;101831.06;4994645;28;19918;-60
2022/07/03 08:35:26;;;;;;;;;;;;;;;21.14;82.86;101819.69;4994735;28;19968;-60
2022/07/03 08:37:51;;;;;;;;;;;;;;;20.94;83.96;101821.16;4994731;28;19944;-60
2022/07/03 08:40:17;;;;;;;;;;;;;;;20.64;85.20;101833.16;5009449;28;19920;-59
2022/07/03 08:42:47;;;;;;;;;;;;;;;20.32;87.39;101827.38;4994346;28;19910;-59
2022/07/03 08:45:16;;;;;;;;;;;;;;;20.00;88.23;101834.06;4993411;28;20368;-59
2022/07/03 08:47:42;;;;;;;;;;;;;;;19.85;89.09;101825.22;4994551;28;19910;-59
2022/07/03 08:50:09;;;;;;;;;;;;;;;19.85;89.93;101824.31;4994421;28;19921;-58
2022/07/03 08:52:35;;;;;;;;;;;;;;;19.87;89.74;101823.25;4994230;28;19941;-58
2022/07/03 08:55:01;;;;;;;;;;;;;;;20.18;88.67;101826.53;4994297;28;20397;-59
2022/07/03 08:57:27;;;;;;;;;;;;;;;20.35;86.56;101822.66;4994609;28;20056;-59
2022/07/03 08:59:53;;;;;;;;;;;;;;;20.57;85.56;101826.50;4992127;28;20012;-60
2022/07/03 09:02:20;;;;;;;;;;;;;;;20.62;84.67;101827.03;4994169;28;19915;-60
2022/07/03 09:04:46;;;;;;;;;;;;;;;20.51;84.33;101827.81;4994024;28;19918;-59
2022/07/03 09:07:12;;;;;;;;;;;;;;;20.37;86.09;101830.59;4994154;28;19910;-59
2022/07/03 09:09:39;;;;;;;;;;;;;;;20.12;87.88;101825.09;5009180;28;19910;-59
2022/07/03 09:12:04;;;;;;;;;;;;;;;19.84;88.89;101828.00;5008916;28;19917;-60
2022/07/03 09:14:30;;;;;;;;;;;;;;;19.53;89.76;101832.72;4993740;28;19921;-59
2022/07/03 09:16:55;;;;;;;;;;;;;;;19.29;91.19;101836.09;4994032;28;19977;-59
2022/07/03 09:19:43;;;;;;;;;;;;;;;19.20;92.42;101845.59;4993725;28;19953;-60
2022/07/03 09:22:21;;;;;;;;;;;;;;;19.04;94.17;101848.44;4993930;28;19964;-60
2022/07/03 09:24:48;;;;;;;;;;;;;;;19.11;96.13;101843.53;4993623;28;20475;-60
2022/07/03 09:27:16;;;;;;;;;;;;;;;19.18;96.61;101843.97;4993832;28;19932;-61
2022/07/03 09:29:50;;;;;;;;;;;;;;;19.43;96.19;101837.88;5008623;28;19917;-58
2022/07/03 09:32:15;;;;;;;;;;;;;;;19.95;92.75;101837.03;4993523;28;19909;-60
2022/07/03 09:34:40;;;;;;;;;;;;;;;20.42;89.70;101841.88;4993743;28;19925;-58
2022/07/03 09:37:06;;;;;;;;;;;;;;;21.04;84.61;101848.28;4993531;28;19913;-59
2022/07/03 09:39:31;;;;;;;;;;;;;;;21.15;84.35;101842.09;4993217;28;19918;-59
2022/07/03 09:42:01;;;;;;;;;;;;;;;21.13;83.21;101850.28;4993457;28;19985;-59
2022/07/03 09:44:33;;;;;;;;;;;;;;;21.26;82.66;101842.16;4993301;28;19997;-59
2022/07/03 09:47:14;;;;;;;;;;;;;;;21.60;82.00;101845.06;4993488;28;19916;-58
2022/07/03 09:49:56;;;;;;;;;;;;;;;21.80;79.09;101845.34;4993325;28;19913;-59
2022/07/03 09:52:31;;;;;;;;;;;;;;;22.05;77.32;101850.56;4992079;28;19909;-60
2022/07/03 09:54:58;;;;;;;;;;;;;;;22.50;77.00;101847.09;4993322;28;20009;-60
2022/07/03 09:57:23;;;;;;;;;;;;;;;23.18;71.62;101843.50;4993301;28;19915;-60
2022/07/03 09:59:48;;;;;;;;;;;;;;;22.82;70.91;101840.94;4992833;28;20005;-60
2022/07/03 10:02:14;;;;;;;;;;;;;;;22.43;73.28;101845.88;5008079;28;19910;-60
2022/07/03 10:04:39;;;;;;;;;;;;;;;22.06;76.41;101838.81;4992931;28;19918;-60
2022/07/03 10:07:04;;;;;;;;;;;;;;;22.16;76.83;101835.38;4993157;28;19917;-60
2022/07/03 10:09:33;;;;;;;;;;;;;;;21.91;74.85;101837.31;4992785;28;19992;-60
2022/07/03 10:11:59;;;;;;;;;;;;;;;22.46;72.69;101859.13;4992932;28;19920;-60
2022/07/03 10:14:25;;;;;;;;;;;;;;;22.69;73.66;101846.47;4992883;28;19925;-60
2022/07/03 10:16:51;;;;;;;;;;;;;;;22.71;76.08;101860.72;4992857;28;19910;-58
2022/07/03 10:19:25;;;;;;;;;;;;;;;22.46;74.38;101863.69;4992848;28;19917;-59
2022/07/03 10:21:51;;;;;;;;;;;;;;;22.14;75.21;101859.78;4992875;28;19935;-59
2022/07/03 10:24:17;;;;;;;;;;;;;;;21.88;76.67;101857.28;4993005;28;19921;-59
2022/07/03 10:26:42;;;;;;;;;;;;;;;21.74;78.17;101861.03;4993047;28;19913;-59
2022/07/03 10:29:08;;;;;;;;;;;;;;;21.31;79.24;101868.78;4993083;28;19956;-59
2022/07/03 10:31:33;;;;;;;;;;;;;;;21.05;80.01;101863.44;4992392;28;19909;-59
2022/07/03 10:33:59;;;;;;;;;;;;;;;20.63;81.50;101872.66;4992687;28;19965;-59
2022/07/03 10:36:24;;;;;;;;;;;;;;;20.56;82.85;101868.69;4992785;28;19918;-58
2022/07/03 10:38:52;;;;;;;;;;;;;;;20.42;88.09;101871.47;5007997;28;19909;-59
2022/07/03 10:46:53;;;;;;;;;;;;;;;20.83;80.00;101885.69;4993035;28;19920;-59
2022/07/03 10:49:18;;;;;;;;;;;;;;;21.06;79.12;101884.91;4991416;28;19914;-60
2022/07/03 10:51:43;;;;;;;;;;;;;;;21.30;77.53;101886.75;4992238;28;19918;-60
2022/07/03 10:54:14;;;;;;;;;;;;;;;21.25;77.36;101876.34;4992618;28;19913;-60
2022/07/03 10:56:58;;;;;;;;;;;;;;;21.41;74.49;101888.66;4992747;28;19910;-59
2022/07/03 10:59:44;;;;;;;;;;;;;;;21.20;75.54;101885.72;4992730;28;19914;-58
2022/07/03 11:02:28;;;;;;;;;;;;;;;21.60;76.53;101886.34;4991290;28;19961;-59
2022/07/03 11:04:56;;;;;;;;;;;;;;;21.91;72.49;101888.53;4992393;28;20366;-58
2022/07/03 11:07:21;;;;;;;;;;;;;;;21.88;72.51;101889.63;4992510;28;20437;-59
2022/07/03 11:09:46;;;;;;;;;;;;;;;22.08;72.59;101879.16;4992208;28;19956;-59
2022/07/03 11:12:12;;;;;;;;;;;;;;;22.07;70.84;101886.38;5007604;28;20008;-59
2022/07/03 11:14:37;;;;;;;;;;;;;;;22.16;70.81;101878.53;4991183;28;19917;-59
2022/07/03 11:17:15;;;;;;;;;;;;;;;21.89;71.85;101868.91;5007579;28;19913;-60
2022/07/03 11:19:41;;;;;;;;;;;;;;;22.09;71.08;101872.78;4992525;28;19909;-58
2022/07/03 11:22:12;;;;;;;;;;;;;;;22.01;72.63;101870.69;4992101;28;19960;-58
2022/07/03 11:24:39;;;;;;;;;;;;;;;21.99;71.37;101872.63;4994192;28;19913;-60
2022/07/03 11:27:18;;;;;;;;;;;;;;;21.62;72.60;101867.34;4996099;28;20052;-61
2022/07/03 11:29:48;;;;;;;;;;;;;;;21.34;73.85;101855.06;4995788;28;19955;-59
2022/07/03 11:32:42;;;;;;;;;;;;;;;20.96;77.25;101867.69;4995632;28;19916;-59
2022/07/03 11:35:07;;;;;;;;;;;;;;;21.03;78.25;101874.34;4995906;28;19913;-59
2022/07/03 11:37:32;;;;;;;;;;;;;;;21.51;76.28;101864.56;4995704;28;20289;-60
2022/07/03 11:40:01;;;;;;;;;;;;;;;22.54;74.75;101866.59;4995826;28;19914;-59
2022/07/03 11:42:32;;;;;;;;;;;;;;;23.28;68.65;101865.22;4995560;28;19910;-59
2022/07/03 11:44:58;;;;;;;;;;;;;;;23.86;63.47;101862.13;4995618;28;19917;-59
2022/07/03 11:47:23;;;;;;;;;;;;;;;23.55;61.75;101862.88;4994428;28;19921;-60
2022/07/03 11:49:49;;;;;;;;;;;;;;;22.94;64.20;101857.13;4995591;28;20019;-60
2022/07/03 11:52:31;;;;;;;;;;;;;;;22.16;68.00;101867.75;4995160;28;19924;-60
2022/07/03 11:54:56;;;;;;;;;;;;;;;21.38;71.14;101876.28;4995375;28;19921;-60
2022/07/03 11:57:21;;;;;;;;;;;;;;;20.91;73.72;101880.63;4995419;28;19915;-59
2022/07/03 11:59:46;;;;;;;;;;;;;;;20.60;72.61;101890.84;4995197;28;20012;-58
2022/07/03 12:02:12;;;;;;;;;;;;;;;20.33;75.28;101896.34;4995289;28;20293;-58
2022/07/03 12:04:38;;;;;;;;;;;;;;;20.00;81.26;101892.31;4995066;28;19922;-59
2022/07/03 12:07:03;;;;;;;;;;;;;;;19.83;83.67;101894.31;4995285;28;19913;-58
2022/07/03 12:09:30;;;;;;;;;;;;;;;19.91;85.13;101894.69;4995134;28;19960;-59
2022/07/03 12:11:59;;;;;;;;;;;;;;;19.89;82.32;101888.53;4993925;28;19909;-59
2022/07/03 12:14:44;;;;;;;;;;;;;;;19.80;78.48;101898.03;4994921;28;19918;-60
2022/07/03 12:17:13;;;;;;;;;;;;;;;20.13;77.70;101896.75;4995295;28;19910;-60
2022/07/03 12:19:44;;;;;;;;;;;;;;;21.19;76.64;101898.31;4995093;28;19909;-60
2022/07/03 12:22:09;;;;;;;;;;;;;;;22.73;64.12;101901.94;4994948;28;19909;-59
2022/07/03 12:24:34;;;;;;;;;;;;;;;22.82;63.82;101899.50;4994783;28;19983;-60
2022/07/03 12:27:01;;;;;;;;;;;;;;;23.78;61.13;101895.25;4995028;28;20369;-59
2022/07/03 12:29:26;;;;;;;;;;;;;;;24.41;61.68;101893.56;5010209;28;19984;-59
2022/07/03 12:31:52;;;;;;;;;;;;;;;24.38;56.73;101892.84;4994569;28;20396;-58
2022/07/03 12:34:17;;;;;;;;;;;;;;;23.74;55.98;101893.78;4993681;28;19941;-58
2022/07/03 12:36:59;;;;;;;;;;;;;;;23.00;57.77;101905.25;5009513;28;19964;-59
2022/07/03 12:39:43;;;;;;;;;;;;;;;23.59;55.81;101900.50;4994743;28;19920;-60
2022/07/03 12:42:18;;;;;;;;;;;;;;;23.30;56.96;101896.53;4994581;28;20306;-60
2022/07/03 12:44:54;;;;;;;;;;;;;;;23.53;59.57;101902.72;4994332;28;19964;-59
2022/07/03 12:47:19;;;;;;;;;;;;;;;24.85;51.98;101905.06;4994666;28;19952;-60
2022/07/03 12:49:44;;;;;;;;;;;;;;;24.70;49.69;101886.47;4994263;28;19965;-59